createdAt,value
2022-10-04T00:02:45.868Z,13.40
2022-10-04T00:05:52.589Z,13.41
2022-10-04T00:09:00.513Z,13.36
2022-10-04T00:12:05.889Z,13.35
2022-10-04T00:15:22.761Z,13.35
2022-10-04T00:18:32.890Z,13.35
2022-10-04T00:22:14.065Z,13.35
2022-10-04T00:25:22.740Z,13.32
2022-10-04T00:28:49.502Z,13.32
2022-10-04T00:32:31.234Z,13.28
2022-10-04T00:35:51.678Z,13.28
2022-10-04T00:39:50.479Z,13.22
2022-10-04T00:43:05.991Z,13.19
2022-10-04T00:46:24.850Z,13.19
2022-10-04T00:49:44.768Z,13.15
2022-10-04T00:52:54.710Z,13.15
2022-10-04T00:56:05.675Z,13.15
2022-10-04T00:59:28.697Z,13.15
2022-10-04T01:02:51.607Z,13.13
2022-10-04T01:06:09.626Z,13.14
2022-10-04T01:09:21.551Z,13.16
2022-10-04T01:12:44.029Z,13.15
2022-10-04T01:16:02.946Z,13.14
2022-10-04T01:19:33.278Z,13.10
2022-10-04T01:22:52.680Z,13.09
2022-10-04T01:25:59.161Z,13.07
2022-10-04T01:29:08.671Z,13.01
2022-10-04T01:32:11.823Z,12.99
2022-10-04T01:35:20.321Z,12.99
2022-10-04T01:38:24.648Z,12.98
2022-10-04T01:41:38.662Z,12.93
2022-10-04T01:44:52.615Z,12.96
2022-10-04T01:48:00.967Z,12.94
2022-10-04T01:51:09.794Z,12.97
2022-10-04T01:54:18.279Z,12.91
2022-10-04T01:57:27.567Z,12.90
2022-10-04T02:00:31.898Z,12.89
2022-10-04T02:03:38.637Z,12.91
2022-10-04T02:06:44.990Z,12.93
2022-10-04T02:09:55.732Z,12.87
2022-10-04T02:12:59.405Z,12.82
2022-10-04T02:16:03.868Z,12.80
2022-10-04T02:19:11.563Z,12.78
2022-10-04T02:22:14.849Z,12.75
2022-10-04T02:25:21.348Z,12.71
2022-10-04T02:28:33.237Z,12.72
2022-10-04T02:31:56.599Z,12.68
2022-10-04T02:34:59.923Z,12.66
2022-10-04T02:38:10.230Z,12.63
2022-10-04T02:41:26.181Z,12.55
2022-10-04T02:44:35.055Z,12.53
2022-10-04T02:47:46.202Z,12.54
2022-10-04T02:50:54.854Z,12.51
2022-10-04T02:54:06.529Z,12.51
2022-10-04T02:57:18.581Z,12.52
2022-10-04T03:00:34.771Z,12.54
2022-10-04T03:03:46.831Z,12.52
2022-10-04T03:06:55.841Z,12.50
2022-10-04T03:09:58.882Z,12.43
2022-10-04T03:13:03.661Z,12.42
2022-10-04T03:16:07.909Z,12.42
2022-10-04T03:19:13.327Z,12.43
2022-10-04T03:22:17.361Z,12.34
2022-10-04T03:25:27.368Z,12.34
2022-10-04T03:28:33.104Z,12.29
2022-10-04T03:31:39.602Z,12.24
2022-10-04T03:34:48.560Z,12.27
2022-10-04T03:37:51.771Z,12.20
2022-10-04T03:40:59.040Z,12.20
2022-10-04T03:44:05.176Z,12.18
2022-10-04T03:47:12.015Z,12.12
2022-10-04T03:50:20.093Z,12.12
2022-10-04T03:53:31.930Z,12.07
2022-10-04T03:56:36.752Z,12.05
2022-10-04T03:59:41.304Z,12.06
2022-10-04T04:02:48.014Z,12.05
2022-10-04T04:05:54.589Z,11.97
2022-10-04T04:08:59.164Z,11.95
2022-10-04T04:12:05.463Z,11.98
2022-10-04T04:15:12.545Z,11.92
2022-10-04T04:18:20.361Z,11.94
2022-10-04T04:21:24.930Z,11.92
2022-10-04T04:24:32.144Z,11.94
2022-10-04T04:27:39.877Z,11.93
2022-10-04T04:30:50.749Z,11.86
2022-10-04T04:33:59.515Z,11.91
2022-10-04T04:37:05.311Z,11.84
2022-10-04T04:40:22.822Z,11.80
2022-10-04T04:43:28.519Z,11.81
2022-10-04T04:46:33.321Z,11.79
2022-10-04T04:49:41.049Z,11.77
2022-10-04T04:52:50.185Z,11.72
2022-10-04T04:56:03.931Z,11.66
2022-10-04T04:59:09.065Z,11.63
2022-10-04T05:02:36.101Z,11.64
2022-10-04T05:05:39.053Z,11.60
2022-10-04T05:08:50.349Z,11.60
2022-10-04T05:11:58.188Z,11.64
2022-10-04T05:15:01.293Z,11.65
2022-10-04T05:18:21.393Z,11.66
2022-10-04T05:21:29.183Z,11.66
2022-10-04T05:24:34.882Z,11.69
2022-10-04T05:27:41.170Z,11.73
2022-10-04T05:30:53.806Z,11.72
2022-10-04T05:33:59.632Z,11.72
2022-10-04T05:37:46.655Z,11.73
2022-10-04T05:40:57.726Z,11.76
2022-10-04T05:44:02.431Z,11.81
2022-10-04T05:47:08.610Z,11.84
2022-10-04T05:50:20.776Z,11.86
2022-10-04T05:53:33.543Z,11.93
2022-10-04T05:57:19.211Z,12.05
2022-10-04T06:00:25.112Z,12.10
2022-10-04T06:03:40.520Z,12.20
2022-10-04T06:06:52.624Z,12.25
2022-10-04T06:10:38.421Z,12.34
2022-10-04T06:14:20.811Z,12.39
2022-10-04T06:17:47.436Z,12.48
2022-10-04T06:21:21.372Z,12.57
2022-10-04T06:24:29.286Z,12.68
2022-10-04T06:27:41.619Z,12.73
2022-10-04T06:31:17.485Z,12.82
2022-10-04T06:34:49.986Z,12.93
2022-10-04T06:38:33.021Z,12.91
2022-10-04T06:41:54.737Z,12.90
2022-10-04T06:45:21.157Z,12.85
2022-10-04T06:48:45.499Z,13.05
2022-10-04T06:52:07.780Z,13.11
2022-10-04T06:56:07.224Z,13.03
2022-10-04T06:59:36.260Z,13.01
2022-10-04T07:02:45.942Z,13.02
2022-10-04T07:05:55.513Z,13.01
2022-10-04T07:09:05.613Z,12.90
2022-10-04T07:12:16.094Z,12.89
2022-10-04T07:15:25.810Z,12.96
2022-10-04T07:18:35.968Z,13.01
2022-10-04T07:21:47.130Z,13.08
2022-10-04T07:25:04.849Z,13.09
2022-10-04T07:28:34.405Z,13.11
2022-10-04T07:31:39.720Z,13.19
2022-10-04T07:34:52.061Z,13.18
2022-10-04T07:38:01.659Z,13.23
2022-10-04T07:41:11.820Z,13.25
2022-10-04T07:44:32.502Z,13.34
2022-10-04T07:47:36.917Z,13.39
2022-10-04T07:50:45.897Z,13.39
2022-10-04T07:53:55.037Z,13.29
2022-10-04T07:57:04.319Z,13.22
2022-10-04T08:00:17.087Z,13.29
2022-10-04T08:03:49.459Z,13.45
2022-10-04T08:06:59.706Z,13.31
2022-10-04T08:10:14.024Z,13.40
2022-10-04T08:13:27.970Z,13.39
2022-10-04T08:16:38.993Z,13.41
2022-10-04T08:19:55.485Z,13.41
2022-10-04T08:23:22.032Z,13.48
2022-10-04T08:26:47.027Z,13.47
2022-10-04T08:30:10.969Z,13.58
2022-10-04T08:33:29.934Z,13.70
2022-10-04T08:36:53.424Z,13.78
2022-10-04T08:40:24.275Z,13.83
2022-10-04T08:44:18.910Z,13.90
2022-10-04T08:48:08.230Z,13.80
2022-10-04T08:51:51.339Z,13.86
2022-10-04T08:55:27.078Z,13.82
2022-10-04T08:59:06.884Z,13.85
2022-10-04T09:02:41.309Z,13.97
2022-10-04T09:06:13.109Z,14.19
2022-10-04T09:09:57.586Z,14.34
2022-10-04T09:13:28.055Z,14.34
2022-10-04T09:16:44.011Z,14.47
2022-10-04T09:20:09.043Z,14.47
2022-10-04T09:23:49.072Z,14.91
2022-10-04T09:27:05.945Z,15.25
2022-10-04T09:30:20.744Z,15.51
2022-10-04T09:34:03.905Z,15.53
2022-10-04T09:37:36.925Z,15.76
2022-10-04T09:41:11.524Z,15.58
2022-10-04T09:45:06.156Z,15.60
2022-10-04T09:48:27.898Z,15.93
2022-10-04T09:52:08.228Z,16.14
2022-10-04T09:55:34.962Z,16.48
2022-10-04T09:59:07.462Z,16.50
2022-10-04T10:02:57.084Z,16.47
2022-10-04T10:06:45.810Z,16.48
2022-10-04T10:10:20.358Z,16.57
2022-10-04T10:14:05.282Z,16.78
2022-10-04T10:17:24.494Z,17.01
2022-10-04T10:21:22.981Z,17.32
2022-10-04T10:25:04.341Z,17.73
2022-10-04T10:28:40.868Z,17.44
2022-10-04T10:32:01.972Z,17.15
2022-10-04T10:35:33.058Z,16.80
2022-10-04T10:39:01.827Z,17.13
2022-10-04T10:42:49.916Z,17.24
2022-10-04T10:46:05.899Z,17.11
2022-10-04T10:49:31.990Z,16.79
2022-10-04T10:53:17.464Z,17.08
2022-10-04T10:56:39.883Z,17.11
2022-10-04T11:00:11.895Z,17.28
2022-10-04T11:03:35.431Z,17.24
2022-10-04T11:07:22.946Z,17.35
2022-10-04T11:10:59.622Z,17.61
2022-10-04T11:14:30.364Z,17.79
2022-10-04T11:18:06.876Z,17.65
2022-10-04T11:21:51.525Z,18.02
2022-10-04T11:25:25.352Z,18.28
2022-10-04T11:28:43.315Z,18.01
2022-10-04T11:32:18.046Z,17.98
2022-10-04T11:35:59.446Z,17.75
2022-10-04T11:39:35.992Z,17.76
2022-10-04T11:43:02.187Z,18.12
2022-10-04T11:46:25.060Z,18.30
2022-10-04T11:50:04.764Z,17.76
2022-10-04T11:53:56.831Z,17.89
2022-10-04T11:57:25.945Z,17.97
2022-10-04T12:01:05.000Z,17.79
2022-10-04T12:04:53.740Z,17.64
2022-10-04T12:08:17.140Z,17.41
2022-10-04T12:12:11.462Z,17.24
2022-10-04T12:15:45.241Z,17.42
2022-10-04T12:19:15.800Z,17.54
2022-10-04T12:22:50.194Z,17.49
2022-10-04T12:26:24.302Z,17.37
2022-10-04T12:30:06.045Z,17.63
2022-10-04T12:33:19.286Z,17.93
2022-10-04T12:36:38.028Z,18.08
2022-10-04T12:40:16.511Z,17.83
2022-10-04T12:43:31.604Z,17.63
2022-10-04T12:46:45.887Z,17.66
2022-10-04T12:49:58.032Z,17.47
2022-10-04T12:53:22.604Z,17.45
2022-10-04T12:56:47.358Z,17.36
2022-10-04T13:00:01.201Z,17.29
2022-10-04T13:03:32.836Z,17.38
2022-10-04T13:06:51.960Z,17.57
2022-10-04T13:10:29.654Z,17.72
2022-10-04T13:14:14.890Z,17.95
2022-10-04T13:17:36.610Z,18.29
2022-10-04T13:20:52.015Z,18.61
2022-10-04T13:24:05.374Z,18.84
2022-10-04T13:27:16.164Z,18.58
2022-10-04T13:30:26.319Z,18.58
2022-10-04T13:33:40.280Z,18.56
2022-10-04T13:37:01.851Z,18.56
2022-10-04T13:40:39.561Z,18.48
2022-10-04T13:44:02.188Z,18.53
2022-10-04T13:47:27.729Z,18.52
2022-10-04T13:51:02.585Z,18.47
2022-10-04T13:54:37.801Z,18.91
2022-10-04T13:57:49.612Z,18.89
2022-10-04T14:01:44.010Z,18.82
2022-10-04T14:05:33.409Z,19.09
2022-10-04T14:09:18.214Z,19.47
2022-10-04T14:12:45.980Z,19.54
2022-10-04T14:16:15.486Z,19.87
2022-10-04T14:20:00.485Z,20.56
2022-10-04T14:23:54.513Z,20.79
2022-10-04T14:27:48.840Z,20.69
2022-10-04T14:31:15.222Z,21.12
2022-10-04T14:34:58.653Z,20.90
2022-10-04T14:38:39.936Z,20.49
2022-10-04T14:42:26.583Z,20.21
2022-10-04T14:45:39.738Z,20.18
2022-10-04T14:48:53.621Z,20.42
2022-10-04T14:52:16.699Z,20.25
2022-10-04T14:55:49.138Z,19.69
2022-10-04T14:59:12.254Z,19.47
2022-10-04T15:02:50.693Z,19.65
2022-10-04T15:06:25.933Z,19.66
2022-10-04T15:09:54.125Z,19.47
2022-10-04T15:13:11.879Z,19.47
2022-10-04T15:16:30.597Z,19.04
2022-10-04T15:19:49.706Z,18.71
2022-10-04T15:22:58.047Z,18.58
2022-10-04T15:26:12.968Z,18.42
2022-10-04T15:29:25.351Z,18.11
2022-10-04T15:32:35.788Z,18.14
2022-10-04T15:35:50.755Z,18.03
2022-10-04T15:39:02.454Z,17.83
2022-10-04T15:42:14.968Z,17.78
2022-10-04T15:45:38.710Z,17.78
2022-10-04T15:48:59.509Z,17.54
2022-10-04T15:52:19.822Z,17.07
2022-10-04T15:55:48.192Z,16.93
2022-10-04T15:59:15.228Z,17.02
2022-10-04T16:02:37.146Z,17.12
2022-10-04T16:05:47.342Z,16.95
2022-10-04T16:09:29.354Z,16.78
2022-10-04T16:12:42.661Z,16.60
2022-10-04T16:15:49.730Z,16.40
2022-10-04T16:19:09.781Z,16.14
2022-10-04T16:22:17.096Z,15.93
2022-10-04T16:25:39.178Z,15.85
2022-10-04T16:29:08.489Z,15.74
2022-10-04T16:32:17.212Z,15.66
2022-10-04T16:35:30.436Z,15.55
2022-10-04T16:39:06.449Z,15.43
2022-10-04T16:42:15.688Z,15.27
2022-10-04T16:45:41.468Z,15.15
2022-10-04T16:48:56.569Z,15.03
2022-10-04T16:52:23.045Z,14.98
2022-10-04T16:55:51.839Z,14.94
2022-10-04T16:59:00.506Z,14.79
2022-10-04T17:02:27.784Z,14.65
2022-10-04T17:06:00.690Z,14.58
2022-10-04T17:09:18.656Z,14.46
2022-10-04T17:12:29.564Z,14.41
2022-10-04T17:15:49.525Z,14.32
2022-10-04T17:19:10.395Z,14.17
2022-10-04T17:22:28.753Z,14.05
2022-10-04T17:25:45.418Z,14.00
2022-10-04T17:28:57.111Z,13.85
2022-10-04T17:32:12.367Z,13.82
2022-10-04T17:35:54.354Z,13.72
2022-10-04T17:39:23.192Z,13.69
2022-10-04T17:42:36.332Z,13.62
2022-10-04T17:45:58.676Z,13.58
2022-10-04T17:49:29.194Z,13.51
2022-10-04T17:53:00.868Z,13.39
2022-10-04T17:56:08.173Z,13.39
2022-10-04T17:59:16.703Z,13.30
2022-10-04T18:02:29.226Z,13.19
2022-10-04T18:05:46.180Z,13.13
2022-10-04T18:08:56.576Z,13.09
2022-10-04T18:12:04.733Z,13.05
2022-10-04T18:15:27.149Z,13.03
2022-10-04T18:18:39.364Z,12.97
2022-10-04T18:21:53.345Z,12.82
2022-10-04T18:25:15.561Z,12.75
2022-10-04T18:28:23.118Z,12.73
2022-10-04T18:31:38.381Z,12.72
2022-10-04T18:34:41.790Z,12.69
2022-10-04T18:37:44.903Z,12.65
2022-10-04T18:40:56.814Z,12.62
2022-10-04T18:44:14.775Z,12.50
2022-10-04T18:47:21.365Z,12.46
2022-10-04T18:50:35.273Z,12.41
2022-10-04T18:53:44.968Z,12.39
2022-10-04T18:57:00.055Z,12.39
2022-10-04T19:00:29.085Z,12.37
2022-10-04T19:03:42.228Z,12.31
2022-10-04T19:06:48.185Z,12.33
2022-10-04T19:10:04.923Z,12.24
2022-10-04T19:13:31.167Z,12.21
2022-10-04T19:16:44.889Z,12.18
2022-10-04T19:19:57.525Z,12.15
2022-10-04T19:23:15.474Z,12.13
2022-10-04T19:26:32.070Z,12.07
2022-10-04T19:30:13.695Z,12.04
2022-10-04T19:33:24.848Z,12.00
2022-10-04T19:36:46.795Z,11.93
2022-10-04T19:40:04.913Z,11.90
2022-10-04T19:43:12.286Z,11.87
2022-10-04T19:46:33.350Z,11.78
2022-10-04T19:49:51.956Z,11.79
2022-10-04T19:52:59.749Z,11.78
2022-10-04T19:56:08.316Z,11.77
2022-10-04T19:59:18.812Z,11.71
2022-10-04T20:02:21.784Z,11.70
2022-10-04T20:05:26.488Z,11.66
2022-10-04T20:09:01.584Z,11.60
2022-10-04T20:12:06.664Z,11.57
2022-10-04T20:15:26.581Z,11.56
2022-10-04T20:18:59.642Z,11.53
2022-10-04T20:26:06.127Z,11.42
2022-10-04T20:29:09.206Z,11.36
2022-10-04T20:32:50.224Z,11.34
2022-10-04T20:36:03.251Z,11.24
2022-10-04T20:39:07.889Z,11.19
2022-10-04T20:42:20.221Z,11.15
2022-10-04T20:45:33.220Z,11.21
2022-10-04T20:48:36.368Z,11.17
2022-10-04T20:51:39.701Z,11.12
2022-10-04T20:54:52.619Z,11.09
2022-10-04T20:58:01.294Z,11.11
2022-10-04T21:01:36.702Z,11.13
2022-10-04T21:04:43.997Z,11.05
2022-10-04T21:07:47.728Z,11.00
2022-10-04T21:11:25.235Z,11.00
2022-10-04T21:14:32.054Z,10.98
2022-10-04T21:17:38.195Z,11.01
2022-10-04T21:20:47.230Z,11.02
2022-10-04T21:23:50.543Z,10.93
2022-10-04T21:26:56.762Z,10.97
2022-10-04T21:30:03.561Z,10.99
2022-10-04T21:33:06.754Z,11.04
2022-10-04T21:36:10.577Z,11.04
2022-10-04T21:39:13.957Z,11.02
2022-10-04T21:42:19.484Z,11.03
2022-10-04T21:45:24.289Z,11.09
2022-10-04T21:48:28.278Z,11.06
2022-10-04T21:51:39.183Z,11.08
2022-10-04T21:54:43.352Z,11.12
2022-10-04T21:57:56.152Z,11.15
2022-10-04T22:01:05.256Z,11.12
2022-10-04T22:04:09.006Z,11.05
2022-10-04T22:07:18.111Z,11.00
2022-10-04T22:10:31.206Z,10.95
2022-10-04T22:13:40.353Z,10.92
2022-10-04T22:16:54.442Z,10.86
2022-10-04T22:20:03.867Z,10.82
2022-10-04T22:23:25.756Z,10.70
2022-10-04T22:26:36.545Z,10.71
2022-10-04T22:29:42.743Z,10.69
2022-10-04T22:32:52.235Z,10.70
2022-10-04T22:36:31.140Z,10.59
2022-10-04T22:39:36.100Z,10.61
2022-10-04T22:42:54.176Z,10.68
2022-10-04T22:45:58.239Z,10.58
2022-10-04T22:49:17.507Z,10.59
2022-10-04T22:52:23.584Z,10.52
2022-10-04T22:55:27.788Z,10.49
2022-10-04T22:58:37.193Z,10.50
2022-10-04T23:01:41.351Z,10.47
2022-10-04T23:04:58.221Z,10.40
2022-10-04T23:08:20.498Z,10.43
2022-10-04T23:11:30.742Z,10.38
2022-10-04T23:14:46.817Z,10.34
2022-10-04T23:17:56.329Z,10.34
2022-10-04T23:21:19.877Z,10.25
2022-10-04T23:24:24.512Z,10.19
2022-10-04T23:27:27.969Z,10.10
2022-10-04T23:30:31.358Z,10.11
2022-10-04T23:33:35.417Z,10.11
2022-10-04T23:36:40.452Z,10.11
2022-10-04T23:39:44.813Z,10.08
2022-10-04T23:42:52.060Z,10.05
2022-10-04T23:45:57.681Z,10.04
2022-10-04T23:49:01.345Z,10.07
2022-10-04T23:52:11.283Z,10.11
2022-10-04T23:55:20.470Z,10.02
2022-10-04T23:58:28.225Z,9.85
